Terminal Aerodrome Forecast
Issued by NWS Charleston, WV

Home | Current Version | Previous Version | Text Only | Print | Product List | Glossary On
Versions: 1 2 3 4 5 6 7 8 9 10 11 12 13 14 15 16 17 18 19 20 21 22 23
000
FTUS41 KRLX 270227 AAA
TAFBKW
TAF AMD
KBKW 270227Z 2702/2724 20004KT P6SM BKN070
     FM271600 20003KT P6SM -SHRA OVC040
     FM271700 20004KT 6SM -SHRA BR VCTS OVC040CB
     FM271800 20004KT 5SM -SHRA BR VCTS OVC040CB
     FM271900 21003KT 6SM -SHRA BR VCTS OVC050CB
     FM272000 25003KT P6SM -SHRA OVC060
     FM272100 00000KT P6SM BKN060=

USA.gov is the U.S. government's official web portal to all federal, state and local government web resources and services.